createdAt,value
2022-09-16T00:00:32.239Z,100.00
2022-09-16T00:02:58.921Z,100.00
2022-09-16T00:05:26.157Z,100.00
2022-09-16T00:07:54.026Z,100.00
2022-09-16T00:10:21.581Z,100.00
2022-09-16T00:12:49.250Z,100.00
2022-09-16T00:15:16.155Z,100.00
2022-09-16T00:17:42.692Z,100.00
2022-09-16T00:20:09.752Z,100.00
2022-09-16T00:22:36.288Z,100.00
2022-09-16T00:25:02.891Z,100.00
2022-09-16T00:27:29.449Z,100.00
2022-09-16T00:29:55.945Z,100.00
2022-09-16T00:32:24.191Z,100.00
2022-09-16T00:34:51.714Z,100.00
2022-09-16T00:37:18.368Z,100.00
2022-09-16T00:39:47.322Z,100.00
2022-09-16T00:42:13.919Z,100.00
2022-09-16T00:44:54.279Z,100.00
2022-09-16T00:47:43.725Z,100.00
2022-09-16T00:50:36.396Z,100.00
2022-09-16T00:53:03.475Z,100.00
2022-09-16T00:55:33.989Z,100.00
2022-09-16T00:58:10.386Z,100.00
2022-09-16T01:00:38.409Z,100.00
2022-09-16T01:03:06.049Z,100.00
2022-09-16T01:05:34.007Z,100.00
2022-09-16T01:08:01.134Z,100.00
2022-09-16T01:10:27.853Z,100.00
2022-09-16T01:13:02.703Z,100.00
2022-09-16T01:15:56.730Z,100.00
2022-09-16T01:18:23.488Z,100.00
2022-09-16T01:21:38.907Z,100.00
2022-09-16T01:24:32.941Z,100.00
2022-09-16T01:26:59.499Z,100.00
2022-09-16T01:29:52.424Z,100.00
2022-09-16T01:32:21.588Z,100.00
2022-09-16T01:35:08.372Z,100.00
2022-09-16T01:37:40.906Z,100.00
2022-09-16T01:40:18.692Z,100.00
2022-09-16T01:42:47.548Z,100.00
2022-09-16T01:45:38.337Z,100.00
2022-09-16T01:48:04.831Z,100.00
2022-09-16T01:51:12.334Z,100.00
2022-09-16T01:53:43.916Z,100.00
2022-09-16T01:56:18.460Z,100.00
2022-09-16T01:59:19.093Z,100.00
2022-09-16T02:02:12.401Z,100.00
2022-09-16T02:04:50.885Z,100.00
2022-09-16T02:07:21.903Z,100.00
2022-09-16T02:09:58.133Z,100.00
2022-09-16T02:12:29.295Z,100.00
2022-09-16T02:15:03.732Z,100.00
2022-09-16T02:17:33.969Z,100.00
2022-09-16T02:20:09.044Z,100.00
2022-09-16T02:22:44.803Z,100.00
2022-09-16T02:25:14.609Z,100.00
2022-09-16T02:27:45.803Z,100.00
2022-09-16T02:30:17.097Z,100.00
2022-09-16T02:32:47.134Z,100.00
2022-09-16T02:35:17.129Z,100.00
2022-09-16T02:37:50.477Z,100.00
2022-09-16T02:40:22.759Z,100.00
2022-09-16T02:42:49.755Z,100.00
2022-09-16T02:45:16.828Z,100.00
2022-09-16T02:47:46.327Z,100.00
2022-09-16T02:50:17.770Z,100.00
2022-09-16T02:52:53.245Z,100.00
2022-09-16T02:55:59.550Z,100.00
2022-09-16T02:58:26.198Z,100.00
2022-09-16T03:00:55.136Z,100.00
2022-09-16T03:03:22.098Z,100.00
2022-09-16T03:06:04.056Z,100.00
2022-09-16T03:08:30.660Z,100.00
2022-09-16T03:11:02.672Z,100.00
2022-09-16T03:13:42.047Z,100.00
2022-09-16T03:16:29.474Z,100.00
2022-09-16T03:19:18.583Z,100.00
2022-09-16T03:21:55.031Z,100.00
2022-09-16T03:24:45.673Z,100.00
2022-09-16T03:27:19.208Z,100.00
2022-09-16T03:29:54.707Z,100.00
2022-09-16T03:32:25.727Z,100.00
2022-09-16T03:34:59.863Z,100.00
2022-09-16T03:37:29.154Z,100.00
2022-09-16T03:39:58.129Z,100.00
2022-09-16T03:42:24.675Z,100.00
2022-09-16T03:44:51.159Z,100.00
2022-09-16T03:47:18.536Z,100.00
2022-09-16T03:49:46.474Z,100.00
2022-09-16T03:52:13.021Z,100.00
2022-09-16T03:54:39.651Z,100.00
2022-09-16T03:57:06.584Z,100.00
2022-09-16T03:59:33.220Z,100.00
2022-09-16T04:01:59.755Z,100.00
2022-09-16T04:04:26.308Z,100.00
2022-09-16T04:06:52.862Z,100.00
2022-09-16T04:09:19.422Z,100.00
2022-09-16T04:11:45.912Z,100.00
2022-09-16T04:14:12.608Z,100.00
2022-09-16T04:16:44.310Z,100.00
2022-09-16T04:19:17.047Z,100.00
2022-09-16T04:21:43.585Z,100.00
2022-09-16T04:24:13.179Z,100.00
2022-09-16T04:26:40.995Z,100.00
2022-09-16T04:29:08.118Z,100.00
2022-09-16T04:31:34.871Z,100.00
2022-09-16T04:34:02.781Z,100.00
2022-09-16T04:36:29.311Z,100.00
2022-09-16T04:38:55.799Z,100.00
2022-09-16T04:41:24.584Z,100.00
2022-09-16T04:43:56.438Z,100.00
2022-09-16T04:46:24.663Z,100.00
2022-09-16T04:48:52.848Z,100.00
2022-09-16T04:51:20.164Z,100.00
2022-09-16T04:53:47.292Z,100.00
2022-09-16T04:56:19.718Z,100.00
2022-09-16T04:58:51.750Z,100.00
2022-09-16T05:01:21.009Z,100.00
2022-09-16T05:03:49.656Z,100.00
2022-09-16T05:06:22.399Z,100.00
2022-09-16T05:08:49.886Z,100.00
2022-09-16T05:11:19.360Z,100.00
2022-09-16T05:13:46.766Z,100.00
2022-09-16T05:16:16.209Z,100.00
2022-09-16T05:18:44.705Z,100.00
2022-09-16T05:21:13.747Z,100.00
2022-09-16T05:23:45.942Z,100.00
2022-09-16T05:26:16.624Z,100.00
2022-09-16T05:28:43.684Z,100.00
2022-09-16T05:31:17.855Z,100.00
2022-09-16T05:33:47.563Z,100.00
2022-09-16T05:36:16.884Z,100.00
2022-09-16T05:38:59.193Z,100.00
2022-09-16T05:41:30.473Z,100.00
2022-09-16T05:44:01.120Z,100.00
2022-09-16T05:46:28.832Z,100.00
2022-09-16T05:48:56.493Z,100.00
2022-09-16T05:51:24.927Z,100.00
2022-09-16T05:53:53.240Z,100.00
2022-09-16T05:56:25.851Z,100.00
2022-09-16T05:58:58.113Z,100.00
2022-09-16T06:01:28.185Z,100.00
2022-09-16T06:03:55.240Z,100.00
2022-09-16T06:06:26.143Z,100.00
2022-09-16T06:08:56.361Z,100.00
2022-09-16T06:11:23.952Z,100.00
2022-09-16T06:13:58.457Z,100.00
2022-09-16T06:16:26.291Z,100.00
2022-09-16T06:18:53.607Z,100.00
2022-09-16T06:21:20.755Z,100.00
2022-09-16T06:23:47.228Z,100.00
2022-09-16T06:26:19.266Z,100.00
2022-09-16T06:28:47.170Z,100.00
2022-09-16T06:31:17.924Z,100.00
2022-09-16T06:33:44.723Z,100.00
2022-09-16T06:36:16.280Z,100.00
2022-09-16T06:38:43.828Z,100.00
2022-09-16T06:41:12.375Z,100.00
2022-09-16T06:43:39.263Z,100.00
2022-09-16T06:46:13.700Z,100.00
2022-09-16T06:48:41.231Z,100.00
2022-09-16T06:51:11.004Z,100.00
2022-09-16T06:53:37.688Z,100.00
2022-09-16T06:56:07.085Z,100.00
2022-09-16T06:58:36.041Z,100.00
2022-09-16T07:01:11.421Z,100.00
2022-09-16T07:03:43.103Z,100.00
2022-09-16T07:06:11.566Z,100.00
2022-09-16T07:08:39.328Z,100.00
2022-09-16T07:11:11.563Z,100.00
2022-09-16T07:13:38.233Z,100.00
2022-09-16T07:16:18.089Z,100.00
2022-09-16T07:18:44.989Z,100.00
2022-09-16T07:21:14.236Z,100.00
2022-09-16T07:23:41.856Z,100.00
2022-09-16T07:26:11.415Z,100.00
2022-09-16T07:28:39.758Z,100.00
2022-09-16T07:31:12.117Z,100.00
2022-09-16T07:33:40.860Z,100.00
2022-09-16T07:36:09.608Z,100.00
2022-09-16T07:38:36.554Z,100.00
2022-09-16T07:41:15.047Z,100.00
2022-09-16T07:43:43.360Z,100.00
2022-09-16T07:46:11.713Z,100.00
2022-09-16T07:48:38.906Z,100.00
2022-09-16T07:51:08.441Z,100.00
2022-09-16T07:53:35.671Z,100.00
2022-09-16T07:56:10.865Z,100.00
2022-09-16T07:58:38.582Z,100.00
2022-09-16T08:01:07.751Z,100.00
2022-09-16T08:03:36.011Z,100.00
2022-09-16T08:06:05.922Z,100.00
2022-09-16T08:08:33.781Z,100.00
2022-09-16T08:11:01.735Z,100.00
2022-09-16T08:13:31.176Z,100.00
2022-09-16T08:16:07.092Z,100.00
2022-09-16T08:18:34.317Z,100.00
2022-09-16T08:21:08.139Z,100.00
2022-09-16T08:23:38.844Z,100.00
2022-09-16T08:26:08.431Z,100.00
2022-09-16T08:28:45.209Z,100.00
2022-09-16T08:31:19.223Z,100.00
2022-09-16T08:33:46.359Z,100.00
2022-09-16T08:36:16.805Z,100.00
2022-09-16T08:38:44.900Z,100.00
2022-09-16T08:41:35.953Z,100.00
2022-09-16T08:44:30.037Z,100.00
2022-09-16T08:47:00.029Z,100.00
2022-09-16T08:49:33.065Z,100.00
2022-09-16T08:52:02.759Z,100.00
2022-09-16T08:54:45.233Z,100.00
2022-09-16T08:57:17.430Z,100.00
2022-09-16T08:59:51.427Z,100.00
2022-09-16T09:05:19.591Z,100.00
2022-09-16T09:07:51.445Z,100.00
2022-09-16T09:10:31.653Z,100.00
2022-09-16T09:13:29.009Z,100.00
2022-09-16T09:16:05.692Z,100.00
2022-09-16T09:18:48.527Z,100.00
2022-09-16T09:21:42.734Z,100.00
2022-09-16T09:24:31.115Z,98.26
2022-09-16T09:27:14.433Z,97.49
2022-09-16T09:30:03.420Z,98.55
2022-09-16T09:32:48.455Z,95.90
2022-09-16T09:35:51.692Z,95.31
2022-09-16T09:38:21.258Z,94.44
2022-09-16T09:41:04.371Z,91.24
2022-09-16T09:44:09.280Z,92.65
2022-09-16T09:46:40.264Z,93.51
2022-09-16T09:49:28.183Z,92.25
2022-09-16T09:52:42.090Z,90.05
2022-09-16T09:55:18.920Z,93.14
2022-09-16T09:58:01.247Z,93.92
2022-09-16T10:00:28.188Z,92.77
2022-09-16T10:03:04.730Z,88.16
2022-09-16T10:05:31.501Z,92.13
2022-09-16T10:08:04.001Z,93.05
2022-09-16T10:10:34.217Z,91.49
2022-09-16T10:13:09.316Z,93.12
2022-09-16T10:15:36.334Z,87.49
2022-09-16T10:18:11.871Z,89.13
2022-09-16T10:20:42.862Z,86.80
2022-09-16T10:23:15.573Z,85.97
2022-09-16T10:25:42.972Z,89.02
2022-09-16T10:28:26.726Z,88.77
2022-09-16T10:30:56.350Z,89.77
2022-09-16T10:33:30.335Z,92.68
2022-09-16T10:36:02.121Z,86.88
2022-09-16T10:38:43.987Z,85.16
2022-09-16T10:41:22.513Z,85.12
2022-09-16T10:44:03.952Z,83.78
2022-09-16T10:46:31.174Z,78.95
2022-09-16T10:49:05.579Z,80.17
2022-09-16T10:51:34.712Z,81.56
2022-09-16T10:54:04.869Z,81.68
2022-09-16T10:56:47.068Z,81.42
2022-09-16T10:59:15.860Z,80.00
2022-09-16T11:01:47.351Z,91.91
2022-09-16T11:04:29.900Z,100.00
2022-09-16T11:07:14.845Z,100.00
2022-09-16T11:09:59.837Z,100.00
2022-09-16T11:12:44.189Z,100.00
2022-09-16T11:15:28.073Z,100.00
2022-09-16T11:18:26.718Z,100.00
2022-09-16T11:21:02.539Z,100.00
2022-09-16T11:23:49.515Z,100.00
2022-09-16T11:26:16.005Z,100.00
2022-09-16T11:29:01.041Z,100.00
2022-09-16T11:32:09.373Z,98.44
2022-09-16T11:34:51.058Z,100.00
2022-09-16T11:37:29.753Z,100.00
2022-09-16T11:40:19.702Z,100.00
2022-09-16T11:42:59.345Z,100.00
2022-09-16T11:45:46.908Z,96.88
2022-09-16T11:48:34.804Z,94.48
2022-09-16T11:51:11.216Z,87.74
2022-09-16T11:53:50.488Z,85.51
2022-09-16T11:56:35.857Z,86.04
2022-09-16T11:59:30.653Z,87.03
2022-09-16T12:02:15.485Z,97.61
2022-09-16T12:04:49.399Z,100.00
2022-09-16T12:07:34.701Z,100.00
2022-09-16T12:10:12.741Z,100.00
2022-09-16T12:12:46.131Z,100.00
2022-09-16T12:15:18.778Z,100.00
2022-09-16T12:18:12.212Z,100.00
2022-09-16T12:20:44.261Z,100.00
2022-09-16T12:23:27.803Z,100.00
2022-09-16T12:26:14.333Z,100.00
2022-09-16T12:28:59.507Z,100.00
2022-09-16T12:31:57.072Z,100.00
2022-09-16T12:34:33.364Z,100.00
2022-09-16T12:37:30.259Z,100.00
2022-09-16T12:39:56.957Z,100.00
2022-09-16T12:42:35.367Z,100.00
2022-09-16T12:45:08.189Z,100.00
2022-09-16T12:47:42.376Z,100.00
2022-09-16T12:50:27.477Z,100.00
2022-09-16T12:53:12.345Z,100.00
2022-09-16T12:55:51.195Z,100.00
2022-09-16T12:58:32.933Z,100.00
2022-09-16T13:01:37.226Z,100.00
2022-09-16T13:04:13.183Z,100.00
2022-09-16T13:06:52.581Z,100.00
2022-09-16T13:09:33.385Z,100.00
2022-09-16T13:15:01.960Z,100.00
2022-09-16T13:17:39.326Z,100.00
2022-09-16T13:20:11.798Z,100.00
2022-09-16T13:22:56.579Z,100.00
2022-09-16T13:25:45.088Z,100.00
2022-09-16T13:28:41.380Z,100.00
2022-09-16T13:31:33.935Z,100.00
2022-09-16T13:34:00.893Z,100.00
2022-09-16T13:36:28.449Z,100.00
2022-09-16T13:38:57.590Z,100.00
2022-09-16T13:41:47.722Z,100.00
2022-09-16T13:44:39.442Z,100.00
2022-09-16T13:47:09.311Z,100.00
2022-09-16T13:49:44.519Z,100.00
2022-09-16T13:52:13.480Z,100.00
2022-09-16T13:55:11.686Z,100.00
2022-09-16T13:57:42.073Z,100.00
2022-09-16T14:00:43.964Z,100.00
2022-09-16T14:03:41.783Z,100.00
2022-09-16T14:06:31.333Z,100.00
2022-09-16T14:09:01.805Z,100.00
2022-09-16T14:11:49.757Z,100.00
2022-09-16T14:14:45.929Z,100.00
2022-09-16T14:17:17.113Z,100.00
2022-09-16T14:19:46.898Z,100.00
2022-09-16T14:22:16.428Z,100.00
2022-09-16T14:24:44.863Z,100.00
2022-09-16T14:27:26.584Z,100.00
2022-09-16T14:29:58.510Z,100.00
2022-09-16T14:32:29.297Z,100.00
2022-09-16T14:34:59.379Z,100.00
2022-09-16T14:37:29.119Z,100.00
2022-09-16T14:40:02.531Z,100.00
2022-09-16T14:42:30.287Z,100.00
2022-09-16T14:44:58.777Z,100.00
2022-09-16T14:47:51.150Z,100.00
2022-09-16T14:50:26.265Z,100.00
2022-09-16T14:53:00.171Z,100.00
2022-09-16T14:55:30.100Z,100.00
2022-09-16T14:58:00.272Z,100.00
2022-09-16T15:00:44.235Z,100.00
2022-09-16T15:03:20.011Z,100.00
2022-09-16T15:05:47.496Z,100.00
2022-09-16T15:08:26.845Z,100.00
2022-09-16T15:10:57.643Z,100.00
2022-09-16T15:13:30.569Z,100.00
2022-09-16T15:16:08.296Z,100.00
2022-09-16T15:18:37.716Z,100.00
2022-09-16T15:21:17.321Z,100.00
2022-09-16T15:23:48.042Z,100.00
2022-09-16T15:26:32.100Z,100.00
2022-09-16T15:29:03.960Z,100.00
2022-09-16T15:31:34.864Z,100.00
2022-09-16T15:34:05.022Z,100.00
2022-09-16T15:36:34.679Z,100.00
2022-09-16T15:39:01.217Z,100.00
2022-09-16T15:41:28.098Z,100.00
2022-09-16T15:43:54.620Z,100.00
2022-09-16T15:46:23.755Z,100.00
2022-09-16T15:48:58.520Z,100.00
2022-09-16T15:51:33.469Z,100.00
2022-09-16T15:54:07.878Z,100.00
2022-09-16T15:56:49.464Z,100.00
2022-09-16T15:59:32.617Z,100.00
2022-09-16T16:02:02.599Z,100.00
2022-09-16T16:04:33.768Z,100.00
2022-09-16T16:07:02.936Z,100.00
2022-09-16T16:09:29.389Z,100.00
2022-09-16T16:12:11.429Z,100.00
2022-09-16T16:14:39.722Z,100.00
2022-09-16T16:17:15.198Z,100.00
2022-09-16T16:19:43.757Z,100.00
2022-09-16T16:22:11.729Z,100.00
2022-09-16T16:24:38.992Z,100.00
2022-09-16T16:27:06.126Z,100.00
2022-09-16T16:29:32.737Z,100.00
2022-09-16T16:32:03.923Z,100.00
2022-09-16T16:34:42.436Z,100.00
2022-09-16T16:37:23.217Z,100.00
2022-09-16T16:39:57.711Z,100.00
2022-09-16T16:42:24.871Z,100.00
2022-09-16T16:44:51.517Z,100.00
2022-09-16T16:47:18.042Z,100.00
2022-09-16T16:49:51.326Z,100.00
2022-09-16T16:52:18.403Z,100.00
2022-09-16T16:54:45.903Z,100.00
2022-09-16T16:57:12.473Z,100.00
2022-09-16T16:59:39.198Z,100.00
2022-09-16T17:02:06.074Z,100.00
2022-09-16T17:04:32.623Z,100.00
2022-09-16T17:07:24.214Z,100.00
2022-09-16T17:09:45.741Z,100.00
2022-09-16T17:12:13.036Z,100.00
2022-09-16T17:14:39.557Z,100.00
2022-09-16T17:17:06.233Z,100.00
2022-09-16T17:19:32.747Z,100.00
2022-09-16T17:21:59.341Z,100.00
2022-09-16T17:24:25.945Z,100.00
2022-09-16T17:26:52.435Z,100.00
2022-09-16T17:29:18.960Z,100.00
2022-09-16T17:31:45.454Z,100.00
2022-09-16T17:34:14.130Z,100.00
2022-09-16T17:36:43.343Z,100.00
2022-09-16T17:39:20.703Z,100.00
2022-09-16T17:41:51.575Z,100.00
2022-09-16T17:44:19.746Z,100.00
2022-09-16T17:46:47.075Z,100.00
2022-09-16T17:49:18.231Z,100.00
2022-09-16T17:51:45.358Z,100.00
2022-09-16T17:54:12.280Z,100.00
2022-09-16T17:56:39.077Z,100.00
2022-09-16T17:59:05.907Z,100.00
2022-09-16T18:01:32.500Z,100.00
2022-09-16T18:03:59.713Z,100.00
2022-09-16T18:06:35.551Z,100.00
2022-09-16T18:09:07.341Z,100.00
2022-09-16T18:11:34.902Z,100.00
2022-09-16T18:14:04.506Z,100.00
2022-09-16T18:16:31.791Z,100.00
2022-09-16T18:19:00.044Z,100.00
2022-09-16T18:21:27.783Z,100.00
2022-09-16T18:23:56.601Z,100.00
2022-09-16T18:26:23.803Z,100.00
2022-09-16T18:29:09.228Z,100.00
2022-09-16T18:31:36.578Z,100.00
2022-09-16T18:34:03.190Z,100.00
2022-09-16T18:36:30.525Z,100.00
2022-09-16T18:38:58.475Z,100.00
2022-09-16T18:41:30.092Z,100.00
2022-09-16T18:43:59.539Z,100.00
2022-09-16T18:46:28.883Z,100.00
2022-09-16T18:48:56.400Z,100.00
2022-09-16T18:51:26.056Z,100.00
2022-09-16T18:53:56.100Z,100.00
2022-09-16T18:56:25.032Z,100.00
2022-09-16T18:59:19.514Z,100.00
2022-09-16T19:01:41.496Z,100.00
2022-09-16T19:04:10.576Z,100.00
2022-09-16T19:06:40.432Z,100.00
2022-09-16T19:09:09.756Z,100.00
2022-09-16T19:11:37.543Z,100.00
2022-09-16T19:14:06.063Z,100.00
2022-09-16T19:16:33.240Z,100.00
2022-09-16T19:19:02.023Z,100.00
2022-09-16T19:21:28.854Z,100.00
2022-09-16T19:23:58.963Z,100.00
2022-09-16T19:26:27.747Z,100.00
2022-09-16T19:28:54.431Z,100.00
2022-09-16T19:31:21.091Z,100.00
2022-09-16T19:33:48.416Z,100.00
2022-09-16T19:36:21.902Z,100.00
2022-09-16T19:38:50.021Z,100.00
2022-09-16T19:41:18.094Z,100.00
2022-09-16T19:43:45.691Z,100.00
2022-09-16T19:46:15.223Z,100.00
2022-09-16T19:48:45.095Z,100.00
2022-09-16T19:51:13.848Z,100.00
2022-09-16T19:53:42.186Z,100.00
2022-09-16T19:56:14.804Z,100.00
2022-09-16T19:58:41.727Z,100.00
2022-09-16T20:01:11.317Z,100.00
2022-09-16T20:03:40.956Z,100.00
2022-09-16T20:06:15.972Z,100.00
2022-09-16T20:08:44.600Z,100.00
2022-09-16T20:11:17.905Z,100.00
2022-09-16T20:13:52.459Z,100.00
2022-09-16T20:16:20.794Z,100.00
2022-09-16T20:18:47.858Z,100.00
2022-09-16T20:21:20.573Z,100.00
2022-09-16T20:23:48.216Z,100.00
2022-09-16T20:26:19.909Z,100.00
2022-09-16T20:28:51.753Z,100.00
2022-09-16T20:31:24.072Z,100.00
2022-09-16T20:33:51.758Z,100.00
2022-09-16T20:36:23.591Z,100.00
2022-09-16T20:38:51.074Z,100.00
2022-09-16T20:41:24.138Z,100.00
2022-09-16T20:43:52.288Z,100.00
2022-09-16T20:46:31.579Z,100.00
2022-09-16T20:49:03.314Z,100.00
2022-09-16T20:51:33.641Z,100.00
2022-09-16T20:54:09.071Z,100.00
2022-09-16T20:56:39.887Z,100.00
2022-09-16T20:59:12.180Z,100.00
2022-09-16T21:01:40.576Z,100.00
2022-09-16T21:04:11.458Z,100.00
2022-09-16T21:06:37.986Z,100.00
2022-09-16T21:09:08.886Z,100.00
2022-09-16T21:11:36.003Z,100.00
2022-09-16T21:14:07.193Z,100.00
2022-09-16T21:16:36.079Z,100.00
2022-09-16T21:19:04.903Z,100.00
2022-09-16T21:21:32.123Z,100.00
2022-09-16T21:24:00.509Z,100.00
2022-09-16T21:26:30.340Z,100.00
2022-09-16T21:28:59.845Z,100.00
2022-09-16T21:31:29.416Z,100.00
2022-09-16T21:33:56.849Z,100.00
2022-09-16T21:36:24.786Z,100.00
2022-09-16T21:38:52.131Z,100.00
2022-09-16T21:41:21.358Z,100.00
2022-09-16T21:43:55.505Z,100.00
2022-09-16T21:46:27.863Z,100.00
2022-09-16T21:49:00.215Z,100.00
2022-09-16T21:51:34.786Z,100.00
2022-09-16T21:54:05.758Z,100.00
2022-09-16T21:56:32.541Z,100.00
2022-09-16T21:59:00.261Z,100.00
2022-09-16T22:01:30.086Z,100.00
2022-09-16T22:04:01.937Z,100.00
2022-09-16T22:06:29.035Z,100.00
2022-09-16T22:08:58.661Z,100.00
2022-09-16T22:11:27.468Z,100.00
2022-09-16T22:13:55.463Z,100.00
2022-09-16T22:16:28.763Z,100.00
2022-09-16T22:18:58.135Z,100.00
2022-09-16T22:21:27.280Z,100.00
2022-09-16T22:23:54.088Z,100.00
2022-09-16T22:26:22.715Z,100.00
2022-09-16T22:28:50.569Z,100.00
2022-09-16T22:31:29.112Z,100.00
2022-09-16T22:33:58.057Z,100.00
2022-09-16T22:36:27.326Z,100.00
2022-09-16T22:39:01.425Z,100.00
2022-09-16T22:41:29.118Z,100.00
2022-09-16T22:43:55.646Z,100.00
2022-09-16T22:46:28.121Z,100.00
2022-09-16T22:48:56.191Z,100.00
2022-09-16T22:51:23.125Z,100.00
2022-09-16T22:53:49.689Z,100.00
2022-09-16T22:56:22.249Z,100.00
2022-09-16T22:58:53.452Z,100.00
2022-09-16T23:01:23.171Z,100.00
2022-09-16T23:03:54.486Z,100.00
2022-09-16T23:06:21.967Z,100.00
2022-09-16T23:08:48.692Z,100.00
2022-09-16T23:11:19.831Z,100.00
2022-09-16T23:13:50.286Z,100.00
2022-09-16T23:16:21.161Z,100.00
2022-09-16T23:18:48.872Z,100.00
2022-09-16T23:21:18.308Z,100.00
2022-09-16T23:23:47.038Z,100.00
2022-09-16T23:26:16.804Z,100.00
2022-09-16T23:28:43.862Z,100.00
2022-09-16T23:31:13.352Z,100.00
2022-09-16T23:33:41.040Z,100.00
2022-09-16T23:36:08.981Z,100.00
2022-09-16T23:38:37.568Z,100.00
2022-09-16T23:41:13.389Z,100.00
2022-09-16T23:43:41.661Z,100.00
2022-09-16T23:46:09.934Z,100.00
2022-09-16T23:48:38.693Z,100.00
2022-09-16T23:51:06.011Z,100.00
2022-09-16T23:53:33.305Z,100.00
2022-09-16T23:55:59.947Z,100.00
2022-09-16T23:58:26.409Z,100.00
